createdAt,value
2022-07-28T00:00:56.588Z,99.90
2022-07-28T00:03:23.633Z,99.90
2022-07-28T00:05:50.514Z,99.90
2022-07-28T00:08:17.419Z,99.90
2022-07-28T00:10:44.345Z,99.90
2022-07-28T00:13:11.241Z,99.90
2022-07-28T00:15:39.711Z,99.90
2022-07-28T00:18:06.703Z,99.90
2022-07-28T00:20:33.590Z,99.90
2022-07-28T00:23:00.514Z,99.90
2022-07-28T00:25:27.407Z,99.90
2022-07-28T00:27:54.277Z,99.90
2022-07-28T00:30:21.103Z,99.90
2022-07-28T00:32:48.135Z,99.90
2022-07-28T00:35:15.147Z,99.90
2022-07-28T00:37:42.491Z,99.90
2022-07-28T00:40:10.122Z,99.90
2022-07-28T00:42:37.269Z,99.90
2022-07-28T00:45:04.613Z,99.90
2022-07-28T00:47:33.851Z,99.90
2022-07-28T00:50:04.912Z,99.90
2022-07-28T00:52:32.135Z,99.90
2022-07-28T00:54:59.047Z,99.90
2022-07-28T00:57:25.884Z,99.90
2022-07-28T00:59:52.647Z,99.90
2022-07-28T01:02:19.857Z,99.90
2022-07-28T01:04:46.837Z,99.90
2022-07-28T01:07:43.719Z,99.90
2022-07-28T01:10:17.019Z,99.90
2022-07-28T01:12:57.439Z,99.90
2022-07-28T01:15:39.586Z,99.90
2022-07-28T01:18:09.391Z,99.90
2022-07-28T01:20:42.314Z,99.90
2022-07-28T01:23:12.231Z,99.90
2022-07-28T01:26:08.640Z,99.90
2022-07-28T01:28:42.364Z,99.90
2022-07-28T01:31:09.839Z,99.90
2022-07-28T01:33:44.860Z,99.90
2022-07-28T01:36:14.864Z,99.90
2022-07-28T01:38:41.856Z,99.90
2022-07-28T01:41:11.773Z,99.90
2022-07-28T01:43:40.461Z,99.90
2022-07-28T01:46:07.326Z,99.90
2022-07-28T01:48:34.825Z,99.90
2022-07-28T01:51:06.070Z,99.90
2022-07-28T01:53:37.550Z,99.90
2022-07-28T01:56:05.430Z,99.90
2022-07-28T01:58:32.366Z,99.90
2022-07-28T02:00:59.156Z,99.90
2022-07-28T02:03:25.999Z,99.90
2022-07-28T02:05:53.249Z,99.90
2022-07-28T02:08:20.520Z,99.90
2022-07-28T02:11:09.218Z,99.90
2022-07-28T02:13:37.125Z,99.90
2022-07-28T02:16:05.816Z,99.90
2022-07-28T02:18:32.741Z,99.90
2022-07-28T02:20:59.888Z,99.90
2022-07-28T02:23:26.709Z,99.90
2022-07-28T02:25:53.591Z,99.90
2022-07-28T02:28:21.211Z,99.90
2022-07-28T02:30:54.244Z,99.90
2022-07-28T02:33:57.928Z,99.90
2022-07-28T02:36:16.295Z,99.90
2022-07-28T02:38:45.870Z,99.90
2022-07-28T02:41:22.656Z,99.90
2022-07-28T02:43:50.721Z,99.90
2022-07-28T02:46:20.327Z,99.90
2022-07-28T02:48:48.872Z,99.90
2022-07-28T02:51:15.793Z,99.90
2022-07-28T02:53:42.639Z,99.90
2022-07-28T02:56:09.503Z,99.90
2022-07-28T02:58:36.336Z,99.90
2022-07-28T03:01:03.249Z,99.90
2022-07-28T03:03:30.154Z,99.90
2022-07-28T03:05:57.007Z,99.90
2022-07-28T03:08:23.798Z,99.90
2022-07-28T03:10:50.591Z,99.90
2022-07-28T03:13:17.431Z,99.90
2022-07-28T03:15:44.841Z,99.90
2022-07-28T03:18:11.601Z,99.90
2022-07-28T03:20:38.482Z,99.90
2022-07-28T03:23:05.666Z,99.90
2022-07-28T03:25:44.827Z,99.90
2022-07-28T03:28:15.093Z,99.90
2022-07-28T03:30:43.318Z,99.90
2022-07-28T03:33:10.399Z,99.90
2022-07-28T03:35:39.457Z,99.90
2022-07-28T03:38:14.337Z,99.90
2022-07-28T03:40:46.306Z,99.90
2022-07-28T03:43:15.056Z,99.90
2022-07-28T03:45:41.851Z,99.90
2022-07-28T03:48:14.524Z,99.90
2022-07-28T03:50:41.467Z,99.90
2022-07-28T03:53:22.239Z,99.90
2022-07-28T03:55:51.022Z,99.90
2022-07-28T03:58:19.230Z,99.90
2022-07-28T04:00:46.372Z,99.90
2022-07-28T04:03:34.865Z,99.90
2022-07-28T04:06:02.772Z,99.90
2022-07-28T04:08:29.528Z,99.90
2022-07-28T04:10:56.281Z,99.90
2022-07-28T04:13:23.562Z,99.90
2022-07-28T04:15:50.350Z,99.90
2022-07-28T04:18:18.476Z,99.90
2022-07-28T04:20:45.274Z,99.90
2022-07-28T04:23:12.015Z,99.90
2022-07-28T04:25:38.984Z,99.90
2022-07-28T04:28:06.935Z,99.90
2022-07-28T04:30:33.893Z,99.90
2022-07-28T04:33:13.231Z,99.90
2022-07-28T04:36:01.701Z,99.90
2022-07-28T04:38:29.017Z,99.90
2022-07-28T04:40:57.116Z,99.90
2022-07-28T04:43:23.929Z,99.90
2022-07-28T04:45:53.311Z,99.90
2022-07-28T04:48:21.896Z,99.90
2022-07-28T04:50:49.269Z,99.90
2022-07-28T04:53:16.697Z,99.90
2022-07-28T04:55:43.556Z,99.90
2022-07-28T04:58:12.491Z,99.90
2022-07-28T05:00:39.549Z,99.90
2022-07-28T05:03:06.448Z,99.90
2022-07-28T05:05:33.303Z,99.90
2022-07-28T05:08:00.146Z,99.90
2022-07-28T05:10:26.967Z,99.90
2022-07-28T05:12:54.489Z,99.90
2022-07-28T05:15:21.336Z,99.90
2022-07-28T05:17:49.662Z,99.90
2022-07-28T05:20:17.375Z,99.90
2022-07-28T05:22:45.153Z,99.90
2022-07-28T05:25:18.671Z,99.90
2022-07-28T05:27:46.354Z,99.90
2022-07-28T05:30:14.330Z,99.90
2022-07-28T05:32:41.232Z,99.90
2022-07-28T05:35:08.530Z,99.90
2022-07-28T05:37:35.951Z,99.90
2022-07-28T05:40:14.153Z,99.90
2022-07-28T05:42:42.372Z,99.90
2022-07-28T05:45:15.863Z,99.90
2022-07-28T05:47:48.429Z,99.90
2022-07-28T05:50:17.178Z,99.90
2022-07-28T05:52:48.143Z,99.90
2022-07-28T05:55:16.115Z,99.90
2022-07-28T05:57:42.957Z,99.90
2022-07-28T06:00:13.110Z,99.90
2022-07-28T06:02:40.838Z,99.90
2022-07-28T06:05:08.092Z,99.90
2022-07-28T06:07:42.906Z,99.90
2022-07-28T06:10:16.084Z,99.90
2022-07-28T06:12:47.012Z,99.90
2022-07-28T06:15:15.572Z,99.90
2022-07-28T06:17:42.518Z,99.90
2022-07-28T06:20:10.219Z,99.90
2022-07-28T06:22:44.045Z,99.90
2022-07-28T06:25:19.163Z,99.90
2022-07-28T06:27:47.395Z,99.90
2022-07-28T06:30:14.316Z,99.90
2022-07-28T06:32:41.191Z,99.90
2022-07-28T06:35:08.549Z,99.90
2022-07-28T06:37:35.424Z,99.90
2022-07-28T06:40:03.457Z,99.90
2022-07-28T06:42:30.240Z,99.90
2022-07-28T06:44:59.711Z,99.90
2022-07-28T06:47:26.955Z,99.90
2022-07-28T06:49:53.929Z,99.90
2022-07-28T06:52:21.955Z,99.90
2022-07-28T06:54:51.646Z,99.90
2022-07-28T06:57:20.271Z,99.90
2022-07-28T06:59:47.743Z,99.90
2022-07-28T07:02:15.132Z,99.90
2022-07-28T07:04:43.475Z,99.90
2022-07-28T07:07:15.078Z,99.90
2022-07-28T07:09:44.340Z,99.90
2022-07-28T07:12:11.143Z,99.90
2022-07-28T07:14:38.045Z,99.90
2022-07-28T07:17:04.874Z,99.90
2022-07-28T07:19:31.698Z,99.90
2022-07-28T07:21:58.540Z,99.90
2022-07-28T07:24:25.416Z,99.90
2022-07-28T07:26:52.244Z,99.90
2022-07-28T07:29:19.919Z,99.90
2022-07-28T07:31:54.230Z,99.90
2022-07-28T07:34:23.507Z,99.90
2022-07-28T07:36:50.397Z,99.90
2022-07-28T07:39:18.040Z,99.90
2022-07-28T07:41:44.834Z,99.90
2022-07-28T07:44:12.895Z,99.90
2022-07-28T07:46:40.010Z,99.90
2022-07-28T07:49:06.939Z,99.90
2022-07-28T07:51:34.484Z,99.90
2022-07-28T07:54:01.330Z,99.90
2022-07-28T07:56:28.178Z,99.90
2022-07-28T07:59:22.875Z,99.90
2022-07-28T08:01:54.619Z,99.90
2022-07-28T08:04:25.254Z,99.90
2022-07-28T08:06:53.025Z,99.90
2022-07-28T08:09:20.007Z,99.90
2022-07-28T08:11:46.748Z,99.90
2022-07-28T08:14:13.730Z,99.90
2022-07-28T08:16:43.698Z,99.90
2022-07-28T08:19:10.588Z,99.90
2022-07-28T08:21:38.666Z,99.90
2022-07-28T08:24:05.855Z,99.90
2022-07-28T08:26:32.614Z,99.90
2022-07-28T08:28:59.378Z,99.90
2022-07-28T08:31:26.861Z,99.90
2022-07-28T08:33:54.922Z,99.90
2022-07-28T08:36:22.358Z,99.90
2022-07-28T08:38:49.099Z,99.90
2022-07-28T08:41:45.270Z,99.90
2022-07-28T08:44:16.275Z,99.90
2022-07-28T08:46:43.507Z,99.90
2022-07-28T08:49:10.344Z,99.90
2022-07-28T08:51:37.569Z,99.90
2022-07-28T08:54:04.600Z,99.90
2022-07-28T08:56:31.375Z,99.90
2022-07-28T08:58:58.153Z,99.90
2022-07-28T09:01:25.186Z,99.90
2022-07-28T09:04:06.925Z,99.90
2022-07-28T09:06:33.675Z,99.90
2022-07-28T09:09:00.425Z,99.90
2022-07-28T09:11:28.300Z,99.90
2022-07-28T09:13:55.122Z,99.90
2022-07-28T09:16:22.486Z,99.90
2022-07-28T09:18:49.341Z,99.90
2022-07-28T09:21:16.225Z,99.90
2022-07-28T09:23:48.652Z,99.90
2022-07-28T09:26:17.092Z,99.90
2022-07-28T09:28:58.844Z,99.90
2022-07-28T09:31:27.113Z,99.90
2022-07-28T09:33:54.354Z,99.90
2022-07-28T09:36:21.733Z,99.90
2022-07-28T09:38:48.619Z,99.90
2022-07-28T09:41:18.921Z,99.90
2022-07-28T09:43:49.871Z,99.90
2022-07-28T09:46:22.890Z,99.90
2022-07-28T09:48:50.044Z,99.90
2022-07-28T09:51:27.260Z,99.90
2022-07-28T09:53:54.887Z,99.90
2022-07-28T09:56:27.516Z,99.90
2022-07-28T09:58:57.911Z,99.90
2022-07-28T10:01:28.035Z,99.90
2022-07-28T10:04:02.677Z,99.90
2022-07-28T10:06:31.579Z,99.90
2022-07-28T10:09:00.677Z,99.90
2022-07-28T10:11:28.732Z,99.90
2022-07-28T10:14:05.446Z,99.90
2022-07-28T10:16:34.219Z,99.90
2022-07-28T10:19:03.057Z,99.90
2022-07-28T10:21:32.047Z,99.90
2022-07-28T10:24:02.240Z,99.90
2022-07-28T10:26:32.226Z,99.90
2022-07-28T10:29:02.273Z,99.90
2022-07-28T10:31:36.050Z,99.90
2022-07-28T10:34:03.589Z,99.90
2022-07-28T10:36:31.445Z,99.90
2022-07-28T10:39:02.713Z,99.90
2022-07-28T10:41:34.536Z,99.90
2022-07-28T10:44:02.967Z,99.90
2022-07-28T10:46:31.660Z,99.90
2022-07-28T10:48:59.153Z,99.90
2022-07-28T10:52:02.133Z,99.90
2022-07-28T10:54:30.344Z,99.90
2022-07-28T10:56:58.823Z,99.90
2022-07-28T10:59:58.222Z,99.90
2022-07-28T11:02:50.185Z,99.90
2022-07-28T11:05:33.882Z,99.90
2022-07-28T11:08:03.217Z,99.90
2022-07-28T11:10:31.231Z,99.90
2022-07-28T11:12:58.669Z,99.90
2022-07-28T11:15:33.109Z,99.90
2022-07-28T11:18:06.447Z,99.90
2022-07-28T11:21:00.232Z,99.90
2022-07-28T11:23:46.675Z,99.90
2022-07-28T11:26:17.352Z,99.90
2022-07-28T11:29:05.654Z,99.90
2022-07-28T11:31:44.719Z,99.90
2022-07-28T11:34:15.983Z,99.90
2022-07-28T11:37:03.759Z,99.90
2022-07-28T11:39:43.210Z,99.90
2022-07-28T11:42:28.167Z,99.90
2022-07-28T11:44:56.548Z,99.90
2022-07-28T11:47:24.935Z,99.90
2022-07-28T11:50:12.318Z,99.90
2022-07-28T11:52:40.309Z,99.90
2022-07-28T11:55:07.390Z,99.90
2022-07-28T11:57:41.560Z,99.90
2022-07-28T12:00:08.853Z,99.90
2022-07-28T12:02:36.179Z,99.90
2022-07-28T12:05:09.504Z,99.90
2022-07-28T12:07:41.836Z,99.90
2022-07-28T12:10:53.388Z,99.90
2022-07-28T12:13:25.317Z,99.90
2022-07-28T12:15:52.176Z,99.90
2022-07-28T12:18:19.029Z,99.90
2022-07-28T12:20:48.674Z,99.90
2022-07-28T12:23:15.891Z,99.90
2022-07-28T12:25:43.762Z,99.90
2022-07-28T12:28:15.292Z,99.90
2022-07-28T12:30:42.276Z,99.90
2022-07-28T12:33:27.472Z,99.90
2022-07-28T12:35:57.333Z,99.90
2022-07-28T12:38:25.668Z,99.90
2022-07-28T12:40:53.578Z,99.90
2022-07-28T12:43:29.327Z,99.90
2022-07-28T12:45:56.238Z,99.90
2022-07-28T12:48:23.527Z,99.90
2022-07-28T12:50:50.376Z,99.90
2022-07-28T12:53:21.291Z,99.90
2022-07-28T12:55:50.731Z,99.90
2022-07-28T12:58:26.873Z,99.90
2022-07-28T13:00:54.177Z,99.90
2022-07-28T13:03:28.634Z,99.90
2022-07-28T13:06:02.471Z,99.90
2022-07-28T13:08:44.049Z,99.90
2022-07-28T13:11:42.857Z,99.90
2022-07-28T13:14:02.829Z,99.90
2022-07-28T13:16:30.116Z,99.40
2022-07-28T13:18:59.407Z,99.10
2022-07-28T13:21:58.325Z,99.50
2022-07-28T13:24:27.721Z,99.40
2022-07-28T13:26:54.686Z,98.70
2022-07-28T13:29:22.549Z,98.60
2022-07-28T13:31:49.598Z,98.80
2022-07-28T13:34:25.419Z,99.10
2022-07-28T13:36:52.713Z,98.60
2022-07-28T13:39:19.582Z,97.90
2022-07-28T13:41:57.583Z,98.00
2022-07-28T13:44:30.071Z,98.20
2022-07-28T13:46:58.921Z,98.60
2022-07-28T13:49:27.538Z,98.10
2022-07-28T13:51:54.770Z,98.00
2022-07-28T13:54:21.780Z,98.40
2022-07-28T13:56:48.967Z,98.40
2022-07-28T13:59:15.830Z,98.70
2022-07-28T14:01:42.700Z,99.10
2022-07-28T14:04:14.654Z,98.50
2022-07-28T14:06:45.121Z,98.30
2022-07-28T14:09:13.026Z,98.30
2022-07-28T14:11:50.171Z,98.00
2022-07-28T14:14:23.783Z,97.50
2022-07-28T14:16:55.027Z,96.90
2022-07-28T14:19:37.890Z,96.90
2022-07-28T14:22:12.698Z,97.60
2022-07-28T14:24:43.768Z,97.90
2022-07-28T14:27:11.357Z,98.40
2022-07-28T14:29:38.927Z,97.70
2022-07-28T14:32:06.633Z,97.30
2022-07-28T14:34:34.347Z,97.70
2022-07-28T14:37:03.541Z,97.60
2022-07-28T14:39:35.931Z,97.90
2022-07-28T14:42:04.136Z,98.10
2022-07-28T14:44:30.909Z,98.40
2022-07-28T14:46:57.725Z,97.80
2022-07-28T14:49:24.556Z,97.50
2022-07-28T14:51:51.640Z,97.90
2022-07-28T14:54:19.048Z,97.50
2022-07-28T14:56:46.244Z,97.70
2022-07-28T14:59:13.111Z,97.20
2022-07-28T15:01:40.600Z,97.70
2022-07-28T15:04:07.584Z,97.40
2022-07-28T15:06:34.422Z,97.30
2022-07-28T15:09:01.652Z,97.00
2022-07-28T15:11:28.519Z,96.60
2022-07-28T15:13:55.400Z,96.50
2022-07-28T15:16:22.199Z,96.20
2022-07-28T15:18:50.901Z,96.00
2022-07-28T15:21:17.830Z,95.60
2022-07-28T15:23:44.843Z,95.80
2022-07-28T15:26:11.937Z,95.90
2022-07-28T15:28:39.317Z,95.90
2022-07-28T15:31:08.402Z,95.50
2022-07-28T15:33:38.919Z,94.90
2022-07-28T15:36:14.811Z,94.80
2022-07-28T15:38:41.649Z,94.70
2022-07-28T15:41:14.984Z,95.10
2022-07-28T15:43:42.041Z,95.30
2022-07-28T15:46:11.229Z,95.30
2022-07-28T15:48:39.604Z,95.10
2022-07-28T15:51:06.568Z,95.70
2022-07-28T15:53:34.303Z,95.40
2022-07-28T15:56:01.126Z,95.30
2022-07-28T15:58:27.937Z,95.50
2022-07-28T16:00:54.854Z,95.50
2022-07-28T16:03:22.692Z,95.00
2022-07-28T16:05:50.146Z,94.60
2022-07-28T16:08:22.488Z,94.60
2022-07-28T16:10:51.469Z,94.80
2022-07-28T16:13:28.691Z,94.90
2022-07-28T16:16:09.003Z,94.90
2022-07-28T16:18:37.602Z,94.80
2022-07-28T16:21:05.067Z,94.70
2022-07-28T16:23:32.099Z,94.80
2022-07-28T16:25:59.257Z,94.90
2022-07-28T16:28:26.553Z,94.70
2022-07-28T16:30:54.748Z,94.60
2022-07-28T16:33:21.601Z,94.80
2022-07-28T16:35:48.467Z,94.70
2022-07-28T16:38:15.232Z,94.70
2022-07-28T16:40:41.959Z,94.90
2022-07-28T16:43:09.960Z,94.80
2022-07-28T16:45:37.050Z,94.90
2022-07-28T16:48:04.112Z,94.80
2022-07-28T16:50:32.675Z,94.70
2022-07-28T16:53:00.317Z,94.70
2022-07-28T16:55:27.199Z,94.90
2022-07-28T16:57:54.017Z,95.20
2022-07-28T17:00:21.448Z,95.20
2022-07-28T17:02:48.316Z,95.20
2022-07-28T17:05:15.134Z,95.30
2022-07-28T17:07:45.155Z,95.20
2022-07-28T17:10:14.138Z,95.10
2022-07-28T17:12:41.084Z,95.10
2022-07-28T17:15:21.790Z,95.20
2022-07-28T17:17:50.812Z,95.10
2022-07-28T17:20:17.728Z,95.10
2022-07-28T17:22:45.098Z,95.20
2022-07-28T17:25:43.633Z,95.40
2022-07-28T17:27:59.271Z,95.50
2022-07-28T17:30:26.252Z,95.40
2022-07-28T17:32:58.108Z,95.80
2022-07-28T17:35:31.554Z,95.70
2022-07-28T17:38:01.829Z,95.80
2022-07-28T17:40:28.632Z,95.90
2022-07-28T17:42:55.412Z,95.90
2022-07-28T17:45:23.906Z,95.90
2022-07-28T17:47:50.869Z,96.00
2022-07-28T17:50:18.211Z,96.20
2022-07-28T17:52:45.576Z,96.40
2022-07-28T17:55:34.448Z,96.20
2022-07-28T17:58:28.333Z,96.40
2022-07-28T18:00:57.990Z,96.10
2022-07-28T18:03:26.405Z,96.20
2022-07-28T18:05:53.558Z,96.20
2022-07-28T18:08:20.646Z,96.30
2022-07-28T18:10:50.449Z,96.30
2022-07-28T18:13:17.786Z,96.40
2022-07-28T18:15:44.708Z,96.30
2022-07-28T18:18:11.561Z,96.50
2022-07-28T18:20:38.830Z,96.60
2022-07-28T18:23:06.495Z,96.70
2022-07-28T18:25:33.788Z,96.70
2022-07-28T18:28:00.775Z,96.60
2022-07-28T18:30:27.896Z,96.60
2022-07-28T18:32:55.063Z,96.70
2022-07-28T18:35:22.343Z,96.90
2022-07-28T18:37:49.523Z,97.00
2022-07-28T18:40:17.885Z,97.00
2022-07-28T18:42:46.304Z,96.80
2022-07-28T18:45:13.406Z,97.00
2022-07-28T18:47:47.485Z,97.10
2022-07-28T18:50:31.381Z,97.10
2022-07-28T18:52:59.034Z,97.20
2022-07-28T18:55:26.059Z,97.20
2022-07-28T18:57:52.916Z,97.40
2022-07-28T19:00:19.752Z,97.60
2022-07-28T19:02:46.605Z,97.60
2022-07-28T19:05:13.540Z,97.70
2022-07-28T19:07:40.371Z,97.70
2022-07-28T19:10:07.691Z,97.80
2022-07-28T19:12:34.630Z,97.90
2022-07-28T19:15:01.699Z,97.90
2022-07-28T19:17:28.647Z,98.00
2022-07-28T19:19:56.267Z,97.90
2022-07-28T19:22:24.036Z,98.10
2022-07-28T19:24:52.611Z,98.20
2022-07-28T19:27:20.226Z,98.40
2022-07-28T19:29:47.119Z,98.70
2022-07-28T19:32:14.091Z,99.00
2022-07-28T19:34:43.070Z,99.30
2022-07-28T19:37:17.121Z,99.60
2022-07-28T19:39:45.938Z,99.80
2022-07-28T19:42:13.070Z,99.90
2022-07-28T19:44:39.972Z,99.90
2022-07-28T19:47:06.838Z,99.90
2022-07-28T19:49:33.645Z,99.90
2022-07-28T19:52:01.142Z,99.90
2022-07-28T19:54:28.730Z,99.90
2022-07-28T19:56:55.533Z,99.90
2022-07-28T19:59:23.081Z,99.90
2022-07-28T20:01:50.651Z,99.90
2022-07-28T20:04:18.180Z,99.90
2022-07-28T20:06:45.181Z,99.90
2022-07-28T20:09:12.656Z,99.90
2022-07-28T20:11:40.775Z,99.90
2022-07-28T20:14:07.729Z,99.90
2022-07-28T20:16:34.565Z,99.90
2022-07-28T20:19:01.441Z,99.90
2022-07-28T20:21:28.285Z,99.90
2022-07-28T20:23:56.285Z,99.90
2022-07-28T20:26:26.072Z,99.90
2022-07-28T20:28:54.194Z,99.90
2022-07-28T20:31:21.038Z,99.90
2022-07-28T20:33:48.441Z,99.90
2022-07-28T20:36:15.235Z,99.90
2022-07-28T20:38:42.128Z,99.90
2022-07-28T20:41:08.834Z,99.90
2022-07-28T20:43:36.888Z,99.90
2022-07-28T20:46:05.422Z,99.90
2022-07-28T20:48:32.635Z,99.90
2022-07-28T20:50:59.395Z,99.90
2022-07-28T20:53:26.210Z,99.90
2022-07-28T20:55:53.475Z,99.90
2022-07-28T20:58:20.379Z,99.90
2022-07-28T21:00:47.246Z,99.90
2022-07-28T21:03:14.045Z,99.90
2022-07-28T21:05:41.126Z,99.90
2022-07-28T21:08:16.162Z,99.90
2022-07-28T21:10:44.201Z,99.90
2022-07-28T21:13:11.078Z,99.90
2022-07-28T21:15:37.796Z,99.90
2022-07-28T21:18:04.594Z,99.90
2022-07-28T21:20:31.600Z,99.90
2022-07-28T21:22:58.348Z,99.90
2022-07-28T21:25:25.084Z,99.90
2022-07-28T21:28:10.292Z,99.90
2022-07-28T21:30:37.070Z,99.90
2022-07-28T21:33:04.097Z,99.90
2022-07-28T21:35:30.949Z,99.90
2022-07-28T21:37:58.331Z,99.90
2022-07-28T21:40:26.146Z,99.90
2022-07-28T21:42:52.974Z,99.90
2022-07-28T21:45:19.992Z,99.90
2022-07-28T21:47:46.811Z,99.90
2022-07-28T21:50:14.130Z,99.90
2022-07-28T21:52:40.897Z,99.90
2022-07-28T21:55:09.350Z,99.90
2022-07-28T21:57:36.325Z,99.90
2022-07-28T22:00:06.049Z,99.90
2022-07-28T22:02:32.908Z,99.90
2022-07-28T22:04:59.763Z,99.90
2022-07-28T22:07:26.536Z,99.90
2022-07-28T22:09:53.254Z,99.90
2022-07-28T22:12:21.116Z,99.90
2022-07-28T22:14:47.870Z,99.90
2022-07-28T22:17:14.643Z,99.90
2022-07-28T22:19:41.456Z,99.90
2022-07-28T22:22:08.158Z,99.90
2022-07-28T22:24:34.895Z,99.90
2022-07-28T22:27:01.661Z,99.90
2022-07-28T22:29:28.541Z,99.90
2022-07-28T22:31:59.594Z,99.90
2022-07-28T22:34:26.658Z,99.90
2022-07-28T22:36:53.514Z,99.90
2022-07-28T22:39:20.245Z,99.90
2022-07-28T22:41:47.954Z,99.90
2022-07-28T22:44:15.187Z,99.90
2022-07-28T22:46:42.120Z,99.90
2022-07-28T22:49:09.098Z,99.90
2022-07-28T22:51:35.981Z,99.90
2022-07-28T22:54:02.801Z,99.90
2022-07-28T22:56:34.968Z,99.90
2022-07-28T22:59:05.206Z,99.90
2022-07-28T23:01:32.162Z,99.90
2022-07-28T23:03:59.143Z,99.90
2022-07-28T23:06:26.526Z,99.90
2022-07-28T23:08:53.491Z,99.90
2022-07-28T23:11:20.440Z,99.90
2022-07-28T23:13:47.322Z,99.90
2022-07-28T23:16:16.195Z,99.90
2022-07-28T23:18:43.993Z,99.90
2022-07-28T23:21:11.258Z,99.90
2022-07-28T23:23:38.248Z,99.90
2022-07-28T23:26:05.328Z,99.90
2022-07-28T23:28:32.169Z,99.90
2022-07-28T23:30:58.901Z,99.90
2022-07-28T23:33:54.113Z,99.90
2022-07-28T23:36:14.715Z,99.90
2022-07-28T23:38:43.791Z,99.90
2022-07-28T23:41:12.451Z,99.90
2022-07-28T23:43:39.412Z,99.90
2022-07-28T23:46:06.591Z,99.90
2022-07-28T23:48:33.447Z,99.90
2022-07-28T23:51:00.363Z,99.90
2022-07-28T23:53:27.518Z,99.90
2022-07-28T23:55:54.238Z,99.90
2022-07-28T23:58:21.086Z,99.90
